createdAt,value
2018-01-10T00:01:29.965Z,100634.55
2018-01-10T00:04:04.917Z,100628.08
2018-01-10T00:06:39.390Z,100620.41
2018-01-10T00:09:14.986Z,100616.98
2018-01-10T00:11:49.976Z,100612.80
2018-01-10T00:14:25.460Z,100610.47
2018-01-10T00:17:00.329Z,100614.02
2018-01-10T00:19:35.101Z,100613.58
2018-01-10T00:22:10.048Z,100627.17
2018-01-10T00:24:45.348Z,100617.54
2018-01-10T00:27:20.273Z,100627.82
2018-01-10T00:29:55.025Z,100626.44
2018-01-10T00:32:29.882Z,100631.82
2018-01-10T00:35:05.421Z,100626.83
2018-01-10T00:37:40.417Z,100627.31
2018-01-10T00:40:15.589Z,100620.66
2018-01-10T00:42:49.760Z,100623.86
2018-01-10T00:45:24.969Z,100615.81
2018-01-10T00:48:00.185Z,100613.34
2018-01-10T00:50:35.060Z,100614.17
2018-01-10T00:53:10.408Z,100615.22
2018-01-10T00:55:45.201Z,100617.27
2018-01-10T00:58:20.465Z,100620.46
2018-01-10T01:00:55.678Z,100617.06
2018-01-10T01:03:30.318Z,100613.96
2018-01-10T01:06:05.085Z,100613.71
2018-01-10T01:08:40.415Z,100614.27
2018-01-10T01:11:15.601Z,100611.69
2018-01-10T01:13:51.188Z,100617.23
2018-01-10T01:16:25.588Z,100611.61
2018-01-10T01:19:00.143Z,100619.27
2018-01-10T01:21:34.541Z,100621.04
2018-01-10T01:24:09.745Z,100611.27
2018-01-10T01:26:44.424Z,100617.19
2018-01-10T01:29:19.525Z,100621.19
2018-01-10T01:31:54.162Z,100627.66
2018-01-10T01:34:29.437Z,100614.42
2018-01-10T01:37:04.285Z,100625.04
2018-01-10T01:39:38.909Z,100626.27
2018-01-10T01:42:14.388Z,100618.33
2018-01-10T01:44:49.185Z,100635.31
2018-01-10T01:47:24.140Z,100628.66
2018-01-10T01:49:59.286Z,100626.97
2018-01-10T01:52:34.579Z,100628.59
2018-01-10T01:55:09.840Z,100634.08
2018-01-10T01:57:44.536Z,100626.83
2018-01-10T02:00:20.116Z,100628.09
2018-01-10T02:02:55.319Z,100628.73
2018-01-10T02:05:29.700Z,100632.84
2018-01-10T02:08:05.163Z,100636.83
2018-01-10T02:10:40.304Z,100629.09
2018-01-10T02:13:15.803Z,100630.13
2018-01-10T02:15:50.665Z,100618.52
2018-01-10T02:18:26.040Z,100619.14
2018-01-10T02:21:01.260Z,100632.42
2018-01-10T02:23:35.694Z,100632.86
2018-01-10T02:26:10.336Z,100621.98
2018-01-10T02:28:45.337Z,100620.92
2018-01-10T02:31:20.611Z,100610.09
2018-01-10T02:33:55.492Z,100615.38
2018-01-10T02:36:30.692Z,100608.55
2018-01-10T02:39:04.807Z,100609.45
2018-01-10T02:41:40.352Z,100602.44
2018-01-10T02:44:15.873Z,100604.22
2018-01-10T02:46:51.307Z,100601.61
2018-01-10T02:49:26.659Z,100603.22
2018-01-10T02:52:01.865Z,100600.91
2018-01-10T02:54:36.526Z,100598.64
2018-01-10T02:57:11.861Z,100596.62
2018-01-10T02:59:46.515Z,100610.44
2018-01-10T03:02:21.420Z,100602.16
2018-01-10T03:04:56.629Z,100595.72
2018-01-10T03:07:31.884Z,100592.98
2018-01-10T03:10:07.454Z,100594.66
2018-01-10T03:12:42.467Z,100594.40
2018-01-10T03:15:17.588Z,100590.15
2018-01-10T03:17:52.407Z,100587.08
2018-01-10T03:20:27.890Z,100585.47
2018-01-10T03:23:03.131Z,100588.72
2018-01-10T03:25:37.713Z,100584.33
2018-01-10T03:28:12.868Z,100581.33
2018-01-10T03:30:47.769Z,100583.16
2018-01-10T03:33:22.935Z,100580.54
2018-01-10T03:35:57.439Z,100587.47
2018-01-10T03:38:31.928Z,100586.73
2018-01-10T03:41:06.803Z,100594.53
2018-01-10T03:43:41.903Z,100593.81
2018-01-10T03:46:17.484Z,100593.75
2018-01-10T03:48:52.606Z,100590.64
2018-01-10T03:51:27.919Z,100591.13
2018-01-10T03:54:02.526Z,100587.09
2018-01-10T03:56:37.344Z,100577.52
2018-01-10T03:59:12.883Z,100586.59
2018-01-10T04:01:47.748Z,100588.72
2018-01-10T04:04:23.053Z,100589.16
2018-01-10T04:06:57.907Z,100586.34
2018-01-10T04:09:32.611Z,100588.84
2018-01-10T04:12:07.584Z,100591.31
2018-01-10T04:14:43.580Z,100592.20
2018-01-10T04:17:18.852Z,100591.65
2018-01-10T04:19:54.051Z,100592.38
2018-01-10T04:22:29.528Z,100593.08
2018-01-10T04:25:04.702Z,100590.16
2018-01-10T04:27:39.814Z,100596.01
2018-01-10T04:30:14.689Z,100596.38
2018-01-10T04:32:49.696Z,100588.54
2018-01-10T04:35:24.924Z,100594.57
2018-01-10T04:38:00.034Z,100597.06
2018-01-10T04:40:35.155Z,100597.95
2018-01-10T04:43:10.255Z,100595.26
2018-01-10T04:45:45.829Z,100585.64
2018-01-10T04:48:21.103Z,100583.97
2018-01-10T04:50:55.812Z,100585.64
2018-01-10T04:53:31.200Z,100580.05
2018-01-10T04:56:06.072Z,100583.30
2018-01-10T04:58:40.950Z,100574.52
2018-01-10T05:01:16.120Z,100585.39
2018-01-10T05:03:50.858Z,100575.76
2018-01-10T05:06:25.979Z,100585.20
2018-01-10T05:09:00.594Z,100586.84
2018-01-10T05:11:35.291Z,100582.16
2018-01-10T05:14:10.204Z,100583.95
2018-01-10T05:16:45.110Z,100581.96
2018-01-10T05:19:19.951Z,100583.58
2018-01-10T05:21:54.820Z,100578.19
2018-01-10T05:24:30.092Z,100589.75
2018-01-10T05:27:05.185Z,100585.75
2018-01-10T05:29:39.862Z,100593.55
2018-01-10T05:32:15.263Z,100592.60
2018-01-10T05:34:50.150Z,100588.89
2018-01-10T05:37:25.411Z,100596.71
2018-01-10T05:40:00.966Z,100593.94
2018-01-10T05:42:36.243Z,100594.56
2018-01-10T05:45:11.191Z,100594.55
2018-01-10T05:47:46.624Z,100585.33
2018-01-10T05:50:22.195Z,100586.11
2018-01-10T05:52:57.147Z,100582.39
2018-01-10T05:55:32.303Z,100583.13
2018-01-10T05:58:07.363Z,100582.41
2018-01-10T06:00:42.888Z,100574.80
2018-01-10T06:03:17.275Z,100579.74
2018-01-10T06:05:51.975Z,100582.41
2018-01-10T06:08:26.648Z,100585.47
2018-01-10T06:11:01.278Z,100583.63
2018-01-10T06:13:36.472Z,100587.27
2018-01-10T06:16:11.558Z,100583.87
2018-01-10T06:18:46.060Z,100582.31
2018-01-10T06:21:21.144Z,100589.98
2018-01-10T06:23:56.181Z,100590.98
2018-01-10T06:26:31.387Z,100592.09
2018-01-10T06:29:06.660Z,100585.41
2018-01-10T06:31:41.404Z,100589.52
2018-01-10T06:34:16.422Z,100577.27
2018-01-10T06:36:51.128Z,100588.66
2018-01-10T06:39:26.444Z,100589.27
2018-01-10T06:42:02.075Z,100593.94
2018-01-10T06:44:36.561Z,100597.79
2018-01-10T06:47:13.123Z,100594.13
2018-01-10T06:49:48.293Z,100588.38
2018-01-10T06:52:23.823Z,100585.66
2018-01-10T06:54:59.175Z,100588.50
2018-01-10T06:57:34.155Z,100586.27
2018-01-10T07:00:08.396Z,100590.33
2018-01-10T07:02:43.098Z,100588.19
2018-01-10T07:05:18.652Z,100589.06
2018-01-10T07:07:53.422Z,100590.02
2018-01-10T07:10:28.131Z,100591.64
2018-01-10T07:13:03.252Z,100592.47
2018-01-10T07:15:37.628Z,100592.15
2018-01-10T07:18:13.471Z,100588.88
2018-01-10T07:20:48.276Z,100587.16
2018-01-10T07:23:23.515Z,100590.39
2018-01-10T07:25:57.892Z,100591.83
2018-01-10T07:28:32.476Z,100590.64
2018-01-10T07:31:07.419Z,100597.27
2018-01-10T07:33:42.319Z,100597.78
2018-01-10T07:36:17.595Z,100598.58
2018-01-10T07:38:52.265Z,100602.80
2018-01-10T07:41:27.730Z,100601.30
2018-01-10T07:44:02.612Z,100601.11
2018-01-10T07:46:37.503Z,100596.13
2018-01-10T07:49:13.700Z,100599.96
2018-01-10T07:51:48.242Z,100602.30
2018-01-10T07:54:23.290Z,100610.34
2018-01-10T07:56:58.590Z,100608.08
2018-01-10T07:59:34.207Z,100616.39
2018-01-10T08:02:09.481Z,100616.93
2018-01-10T08:04:44.444Z,100614.66
2018-01-10T08:07:19.628Z,100608.36
2018-01-10T08:09:54.375Z,100612.72
2018-01-10T08:12:29.362Z,100613.17
2018-01-10T08:15:03.978Z,100612.50
2018-01-10T08:17:38.752Z,100610.17
2018-01-10T08:20:13.692Z,100613.72
2018-01-10T08:22:48.564Z,100614.29
2018-01-10T08:25:23.843Z,100616.41
2018-01-10T08:27:59.223Z,100614.52
2018-01-10T08:30:33.707Z,100617.27
2018-01-10T08:33:08.711Z,100611.37
2018-01-10T08:35:43.335Z,100617.48
2018-01-10T08:38:18.817Z,100613.02
2018-01-10T08:40:54.047Z,100615.57
2018-01-10T08:43:29.299Z,100611.25
2018-01-10T08:46:04.065Z,100614.09
2018-01-10T08:48:38.459Z,100606.75
2018-01-10T08:51:13.772Z,100606.94
2018-01-10T08:53:48.718Z,100605.83
2018-01-10T08:56:23.756Z,100602.89
2018-01-10T08:58:58.739Z,100602.06
2018-01-10T09:01:33.520Z,100599.06
2018-01-10T09:04:08.525Z,100603.29
2018-01-10T09:06:42.994Z,100607.92
2018-01-10T09:09:17.325Z,100606.41
2018-01-10T09:11:52.322Z,100609.48
2018-01-10T09:14:27.593Z,100610.14
2018-01-10T09:17:02.806Z,100607.70
2018-01-10T09:19:37.426Z,100609.03
2018-01-10T09:22:13.600Z,100608.41
2018-01-10T09:24:48.307Z,100615.89
2018-01-10T09:27:23.783Z,100613.27
2018-01-10T09:29:58.475Z,100612.81
2018-01-10T09:32:33.474Z,100620.40
2018-01-10T09:35:07.524Z,100631.58
2018-01-10T09:37:42.558Z,100625.47
2018-01-10T09:40:17.860Z,100628.76
2018-01-10T09:42:52.843Z,100629.14
2018-01-10T09:45:27.865Z,100630.87
2018-01-10T09:48:02.952Z,100627.03
2018-01-10T09:50:37.611Z,100625.58
2018-01-10T09:53:13.555Z,100629.36
2018-01-10T09:55:48.534Z,100620.39
2018-01-10T09:58:23.228Z,100625.62
2018-01-10T10:00:58.749Z,100625.09
2018-01-10T10:03:33.319Z,100615.89
2018-01-10T10:06:08.984Z,100623.63
2018-01-10T10:08:44.432Z,100621.34
2018-01-10T10:11:19.876Z,100614.83
2018-01-10T10:13:54.976Z,100611.53
2018-01-10T10:16:29.638Z,100612.20
2018-01-10T10:19:04.658Z,100600.47
2018-01-10T10:21:39.830Z,100600.26
2018-01-10T10:24:14.912Z,100587.86
2018-01-10T10:26:49.989Z,100590.08
2018-01-10T10:29:25.172Z,100592.28
2018-01-10T10:32:00.348Z,100595.12
2018-01-10T10:34:35.839Z,100589.53
2018-01-10T10:37:11.264Z,100588.52
2018-01-10T10:39:46.684Z,100587.62
2018-01-10T10:42:21.931Z,100591.42
2018-01-10T10:44:56.931Z,100588.06
2018-01-10T10:47:32.612Z,100586.87
2018-01-10T10:50:07.983Z,100587.97
2018-01-10T10:52:43.248Z,100587.80
2018-01-10T10:55:18.736Z,100581.00
2018-01-10T10:57:53.223Z,100583.05
2018-01-10T11:00:28.031Z,100578.12
2018-01-10T11:03:02.803Z,100571.70
2018-01-10T11:05:37.880Z,100578.15
2018-01-10T11:08:14.032Z,100570.83
2018-01-10T11:10:49.115Z,100570.36
2018-01-10T11:13:24.102Z,100576.64
2018-01-10T11:15:58.706Z,100578.91
2018-01-10T11:18:33.008Z,100566.34
2018-01-10T11:21:07.915Z,100567.57
2018-01-10T11:23:42.982Z,100564.20
2018-01-10T11:26:17.792Z,100568.35
2018-01-10T11:28:52.912Z,100565.30
2018-01-10T11:31:28.117Z,100566.25
2018-01-10T11:34:03.075Z,100562.98
2018-01-10T11:36:38.285Z,100561.22
2018-01-10T11:39:12.909Z,100558.42
2018-01-10T11:41:47.858Z,100562.20
2018-01-10T11:44:23.128Z,100552.88
2018-01-10T11:46:57.934Z,100548.22
2018-01-10T11:49:32.313Z,100545.47
2018-01-10T11:52:07.635Z,100540.53
2018-01-10T11:54:43.133Z,100535.77
2018-01-10T11:57:18.047Z,100531.09
2018-01-10T11:59:53.052Z,100536.81
2018-01-10T12:02:28.237Z,100534.27
2018-01-10T12:05:03.340Z,100531.16
2018-01-10T12:07:38.000Z,100524.61
2018-01-10T12:10:14.200Z,100520.00
2018-01-10T12:12:49.033Z,100518.21
2018-01-10T12:15:24.029Z,100522.91
2018-01-10T12:17:58.887Z,100516.09
2018-01-10T12:20:33.964Z,100513.74
2018-01-10T12:23:08.976Z,100514.27
2018-01-10T12:25:43.923Z,100506.62
2018-01-10T12:28:19.339Z,100515.69
2018-01-10T12:30:54.419Z,100505.59
2018-01-10T12:33:29.670Z,100505.50
2018-01-10T12:36:04.079Z,100510.11
2018-01-10T12:38:39.155Z,100506.20
2018-01-10T12:41:14.510Z,100510.55
2018-01-10T12:43:49.499Z,100504.78
2018-01-10T12:46:23.510Z,100503.98
2018-01-10T12:48:58.083Z,100503.78
2018-01-10T12:51:33.352Z,100499.66
2018-01-10T12:54:08.516Z,100500.58
2018-01-10T12:56:44.149Z,100500.44
2018-01-10T12:59:19.275Z,100501.78
2018-01-10T13:01:53.951Z,100501.05
2018-01-10T13:04:28.438Z,100494.69
2018-01-10T13:07:04.044Z,100494.14
2018-01-10T13:09:39.158Z,100500.03
2018-01-10T13:12:14.404Z,100503.20
2018-01-10T13:14:49.389Z,100499.14
2018-01-10T13:17:24.660Z,100503.57
2018-01-10T13:20:00.096Z,100506.39
2018-01-10T13:22:35.087Z,100502.96
2018-01-10T13:25:10.226Z,100495.70
2018-01-10T13:27:44.651Z,100495.60
2018-01-10T13:30:20.008Z,100503.45
2018-01-10T13:32:55.092Z,100505.08
2018-01-10T13:35:30.607Z,100506.00
2018-01-10T13:38:05.103Z,100508.80
2018-01-10T13:40:40.386Z,100512.23
2018-01-10T13:43:15.856Z,100509.98
2018-01-10T13:45:51.208Z,100505.99
2018-01-10T13:48:26.471Z,100514.13
2018-01-10T13:51:01.427Z,100507.34
2018-01-10T13:53:36.635Z,100515.06
2018-01-10T13:56:11.639Z,100514.44
2018-01-10T13:58:46.284Z,100519.45
2018-01-10T14:01:21.727Z,100526.22
2018-01-10T14:03:56.795Z,100527.06
2018-01-10T14:06:32.098Z,100530.13
2018-01-10T14:09:07.268Z,100528.57
2018-01-10T14:11:42.154Z,100523.16
2018-01-10T14:14:17.500Z,100525.97
2018-01-10T14:16:53.065Z,100530.16
2018-01-10T14:19:27.722Z,100529.13
2018-01-10T14:22:03.323Z,100529.72
2018-01-10T14:24:38.318Z,100534.16
2018-01-10T14:27:13.247Z,100537.60
2018-01-10T14:29:48.268Z,100540.13
2018-01-10T14:32:23.780Z,100540.08
2018-01-10T14:34:58.773Z,100551.08
2018-01-10T14:37:33.551Z,100540.48
2018-01-10T14:40:08.691Z,100540.73
2018-01-10T14:42:43.982Z,100540.17
2018-01-10T14:45:18.584Z,100540.98
2018-01-10T14:47:53.615Z,100546.05
2018-01-10T14:50:28.604Z,100538.11
2018-01-10T14:53:03.697Z,100541.55
2018-01-10T14:55:38.376Z,100548.76
2018-01-10T14:58:12.563Z,100543.01
2018-01-10T15:00:47.096Z,100547.62
2018-01-10T15:03:22.383Z,100543.22
2018-01-10T15:05:57.416Z,100546.38
2018-01-10T15:08:31.811Z,100551.25
2018-01-10T15:11:06.391Z,100549.15
2018-01-10T15:13:41.686Z,100556.67
2018-01-10T15:16:16.614Z,100555.65
2018-01-10T15:18:51.712Z,100556.23
2018-01-10T15:21:26.501Z,100560.39
2018-01-10T15:24:01.751Z,100557.83
2018-01-10T15:26:36.673Z,100565.33
2018-01-10T15:29:12.383Z,100568.59
2018-01-10T15:31:47.446Z,100571.09
2018-01-10T15:34:22.646Z,100576.80
2018-01-10T15:36:57.940Z,100575.59
2018-01-10T15:39:32.398Z,100515.68
2018-01-10T15:42:06.768Z,100588.61
2018-01-10T15:44:42.354Z,100590.20
2018-01-10T15:47:17.036Z,100587.78
2018-01-10T15:49:52.203Z,100591.81
2018-01-10T15:52:27.691Z,100588.88
2018-01-10T15:55:02.205Z,100589.52
2018-01-10T15:57:36.673Z,100590.86
2018-01-10T16:00:11.539Z,100594.65
2018-01-10T16:02:46.848Z,100592.93
2018-01-10T16:05:21.743Z,100599.70
2018-01-10T16:07:56.932Z,100598.73
2018-01-10T16:10:32.684Z,100598.59
2018-01-10T16:13:07.162Z,100604.48
2018-01-10T16:15:41.780Z,100600.95
2018-01-10T16:18:17.752Z,100605.12
2018-01-10T16:20:52.584Z,100601.36
2018-01-10T16:23:27.864Z,100600.13
2018-01-10T16:26:02.927Z,100604.35
2018-01-10T16:28:38.008Z,100603.83
2018-01-10T16:31:12.756Z,100602.36
2018-01-10T16:33:48.005Z,100612.63
2018-01-10T16:36:22.912Z,100607.08
2018-01-10T16:38:57.742Z,100583.45
2018-01-10T16:41:32.597Z,100599.16
2018-01-10T16:44:07.105Z,100603.44
2018-01-10T16:46:41.587Z,100601.98
2018-01-10T16:49:16.359Z,100599.53
2018-01-10T16:51:51.336Z,100602.28
2018-01-10T16:54:26.957Z,100598.89
2018-01-10T16:57:01.828Z,100607.36
2018-01-10T16:59:36.719Z,100607.45
2018-01-10T17:02:11.216Z,100604.38
2018-01-10T17:04:45.828Z,100589.16
2018-01-10T17:07:20.911Z,100602.29
2018-01-10T17:09:56.412Z,100603.83
2018-01-10T17:12:32.172Z,100604.84
2018-01-10T17:15:07.189Z,100606.31
2018-01-10T17:17:42.113Z,100609.00
2018-01-10T17:20:16.969Z,100615.06
2018-01-10T17:22:51.748Z,100607.66
2018-01-10T17:25:26.175Z,100604.95
2018-01-10T17:28:01.406Z,100615.29
2018-01-10T17:30:35.862Z,100614.98
2018-01-10T17:33:10.682Z,100609.49
2018-01-10T17:35:45.687Z,100608.91
2018-01-10T17:38:21.040Z,100611.86
2018-01-10T17:40:56.595Z,100619.33
2018-01-10T17:43:31.862Z,100623.23
2018-01-10T17:46:06.256Z,100623.83
2018-01-10T17:48:41.958Z,100628.17
2018-01-10T17:51:16.935Z,100633.15
2018-01-10T17:53:52.244Z,100633.80
2018-01-10T17:56:27.593Z,100632.92
2018-01-10T17:59:01.959Z,100632.92
2018-01-10T18:01:37.267Z,100638.24
2018-01-10T18:04:12.486Z,100638.05
2018-01-10T18:06:47.889Z,100639.19
2018-01-10T18:09:23.221Z,100638.01
2018-01-10T18:11:57.887Z,100645.30
2018-01-10T18:14:32.690Z,100647.78
2018-01-10T18:17:08.239Z,100641.55
2018-01-10T18:19:42.830Z,100638.92
2018-01-10T18:22:18.619Z,100650.09
2018-01-10T18:24:53.896Z,100651.25
2018-01-10T18:27:28.653Z,100648.39
2018-01-10T18:30:03.257Z,100651.91
2018-01-10T18:32:38.967Z,100652.92
2018-01-10T18:35:15.239Z,100659.66
2018-01-10T18:37:49.867Z,100645.53
2018-01-10T18:40:25.222Z,100646.97
2018-01-10T18:43:00.335Z,100652.59
2018-01-10T18:45:35.203Z,100649.01
2018-01-10T18:48:10.168Z,100658.72
2018-01-10T18:50:45.363Z,100655.58
2018-01-10T18:53:21.004Z,100662.47
2018-01-10T18:55:55.882Z,100660.94
2018-01-10T18:58:31.424Z,100673.31
2018-01-10T19:01:06.837Z,100671.70
2018-01-10T19:03:41.891Z,100661.92
2018-01-10T19:06:17.320Z,100670.86
2018-01-10T19:08:51.996Z,100685.49
2018-01-10T19:11:26.944Z,100676.09
2018-01-10T19:14:01.036Z,100677.79
2018-01-10T19:16:35.461Z,100669.92
2018-01-10T19:19:10.160Z,100679.11
2018-01-10T19:21:45.174Z,100680.64
2018-01-10T19:24:20.077Z,100675.86
2018-01-10T19:26:55.030Z,100682.71
2018-01-10T19:29:30.072Z,100682.30
2018-01-10T19:32:05.375Z,100685.06
2018-01-10T19:34:39.970Z,100679.81
2018-01-10T19:37:15.362Z,100679.95
2018-01-10T19:39:50.344Z,100686.84
2018-01-10T19:42:25.922Z,100690.59
2018-01-10T19:45:01.234Z,100689.96
2018-01-10T19:47:36.169Z,100696.53
2018-01-10T19:50:11.060Z,100696.80
2018-01-10T19:52:46.320Z,100691.36
2018-01-10T19:55:21.806Z,100690.23
2018-01-10T19:57:56.879Z,100686.98
2018-01-10T20:00:31.463Z,100690.42
2018-01-10T20:03:06.196Z,100696.94
2018-01-10T20:05:41.454Z,100692.53
2018-01-10T20:08:16.343Z,100691.19
2018-01-10T20:10:51.319Z,100695.70
2018-01-10T20:13:26.672Z,100693.41
2018-01-10T20:16:01.669Z,100688.10
2018-01-10T20:18:36.594Z,100692.83
2018-01-10T20:21:11.385Z,100696.41
2018-01-10T20:23:46.676Z,100692.06
2018-01-10T20:26:22.052Z,100698.63
2018-01-10T20:28:56.546Z,100698.33
2018-01-10T20:31:31.499Z,100697.84
2018-01-10T20:34:07.463Z,100695.16
2018-01-10T20:36:42.230Z,100697.19
2018-01-10T20:39:16.750Z,100698.36
2018-01-10T20:41:52.216Z,100700.59
2018-01-10T20:44:27.208Z,100693.22
2018-01-10T20:47:02.295Z,100696.52
2018-01-10T20:49:37.571Z,100694.03
2018-01-10T20:52:12.488Z,100700.45
2018-01-10T20:54:47.486Z,100697.36
2018-01-10T20:57:22.254Z,100699.59
2018-01-10T20:59:57.262Z,100701.01
2018-01-10T21:02:32.234Z,100700.67
2018-01-10T21:05:07.376Z,100705.09
2018-01-10T21:07:42.682Z,100708.59
2018-01-10T21:10:18.534Z,100699.23
2018-01-10T21:12:53.611Z,100710.38
2018-01-10T21:15:28.758Z,100707.81
2018-01-10T21:18:03.268Z,100716.30
2018-01-10T21:20:38.611Z,100715.31
2018-01-10T21:23:15.626Z,100718.28
2018-01-10T21:25:50.423Z,100718.58
2018-01-10T21:28:25.425Z,100719.98
2018-01-10T21:31:00.435Z,100717.82
2018-01-10T21:33:35.703Z,100725.78
2018-01-10T21:36:10.559Z,100728.20
2018-01-10T21:38:45.720Z,100728.64
2018-01-10T21:41:20.579Z,100733.60
2018-01-10T21:43:55.626Z,100722.62
2018-01-10T21:46:30.592Z,100734.17
2018-01-10T21:49:05.571Z,100730.03
2018-01-10T21:51:40.823Z,100738.56
2018-01-10T21:54:15.775Z,100740.90
2018-01-10T21:56:50.663Z,100739.50
2018-01-10T21:59:25.411Z,100749.98
2018-01-10T22:02:01.148Z,100751.65
2018-01-10T22:04:36.406Z,100738.78
2018-01-10T22:07:11.079Z,100740.83
2018-01-10T22:09:46.081Z,100748.97
2018-01-10T22:12:20.926Z,100753.26
2018-01-10T22:14:56.034Z,100753.02
2018-01-10T22:17:30.482Z,100752.25
2018-01-10T22:20:05.350Z,100746.32
2018-01-10T22:22:40.003Z,100757.81
2018-01-10T22:25:15.456Z,100761.25
2018-01-10T22:27:50.644Z,100768.30
2018-01-10T22:30:25.486Z,100764.28
2018-01-10T22:33:00.937Z,100760.80
2018-01-10T22:35:36.043Z,100761.66
2018-01-10T22:38:11.332Z,100760.93
2018-01-10T22:40:46.508Z,100754.95
2018-01-10T22:43:21.162Z,100751.22
2018-01-10T22:45:55.645Z,100749.09
2018-01-10T22:48:30.406Z,100753.92
2018-01-10T22:51:05.115Z,100747.39
2018-01-10T22:53:40.083Z,100753.72
2018-01-10T22:56:15.583Z,100755.38
2018-01-10T22:58:50.471Z,100752.95
2018-01-10T23:01:26.267Z,100753.75
2018-01-10T23:04:00.647Z,100760.31
2018-01-10T23:06:36.099Z,100757.81
2018-01-10T23:09:11.776Z,100761.56
2018-01-10T23:11:46.599Z,100759.61
2018-01-10T23:14:22.395Z,100765.53
2018-01-10T23:16:57.520Z,100765.79
2018-01-10T23:19:33.098Z,100764.42
2018-01-10T23:22:07.904Z,100765.56
2018-01-10T23:24:42.511Z,100763.59
2018-01-10T23:27:17.323Z,100762.81
2018-01-10T23:29:52.240Z,100767.80
2018-01-10T23:32:26.651Z,100770.19
2018-01-10T23:35:01.728Z,100757.05
2018-01-10T23:37:36.622Z,100756.16
2018-01-10T23:40:11.498Z,100759.27
2018-01-10T23:42:46.322Z,100764.40
2018-01-10T23:45:21.211Z,100757.52
2018-01-10T23:47:56.288Z,100766.20
2018-01-10T23:50:31.871Z,100771.50
2018-01-10T23:53:06.480Z,100776.45
2018-01-10T23:55:41.688Z,100770.28
2018-01-10T23:58:16.802Z,100768.70
